sensor_id;sensor_type;location;lat;lon;timestamp;P1;durP1;ratioP1;P2;durP2;ratioP2
68178;SDS011;54998;42.656;23.382;2023-03-07T00:00:07;18.83;;;9.02;;
68178;SDS011;54998;42.656;23.382;2023-03-07T00:02:33;17.55;;;8.27;;
68178;SDS011;54998;42.656;23.382;2023-03-07T00:04:59;22.67;;;9.07;;
68178;SDS011;54998;42.656;23.382;2023-03-07T00:07:24;17.88;;;8.82;;
68178;SDS011;54998;42.656;23.382;2023-03-07T00:09:49;18.80;;;8.30;;
68178;SDS011;54998;42.656;23.382;2023-03-07T00:12:15;21.27;;;8.55;;
68178;SDS011;54998;42.656;23.382;2023-03-07T00:14:40;17.17;;;8.77;;
68178;SDS011;54998;42.656;23.382;2023-03-07T00:17:06;16.33;;;8.18;;
68178;SDS011;54998;42.656;23.382;2023-03-07T00:19:31;20.00;;;8.07;;
68178;SDS011;54998;42.656;23.382;2023-03-07T00:21:56;16.42;;;7.75;;
68178;SDS011;54998;42.656;23.382;2023-03-07T00:24:22;12.80;;;5.97;;
68178;SDS011;54998;42.656;23.382;2023-03-07T00:26:47;13.40;;;6.65;;
68178;SDS011;54998;42.656;23.382;2023-03-07T00:29:13;12.63;;;6.20;;
68178;SDS011;54998;42.656;23.382;2023-03-07T00:31:38;13.10;;;5.72;;
68178;SDS011;54998;42.656;23.382;2023-03-07T00:34:03;10.10;;;4.75;;
68178;SDS011;54998;42.656;23.382;2023-03-07T00:36:29;11.40;;;4.65;;
68178;SDS011;54998;42.656;23.382;2023-03-07T00:38:55;9.27;;;3.83;;
68178;SDS011;54998;42.656;23.382;2023-03-07T00:41:24;14.55;;;6.18;;
68178;SDS011;54998;42.656;23.382;2023-03-07T00:43:52;13.55;;;6.07;;
68178;SDS011;54998;42.656;23.382;2023-03-07T00:46:19;14.90;;;7.05;;
68178;SDS011;54998;42.656;23.382;2023-03-07T00:48:46;14.63;;;6.20;;
68178;SDS011;54998;42.656;23.382;2023-03-07T00:51:13;9.00;;;4.10;;
68178;SDS011;54998;42.656;23.382;2023-03-07T00:53:40;15.85;;;4.30;;
68178;SDS011;54998;42.656;23.382;2023-03-07T00:56:08;9.00;;;4.57;;
68178;SDS011;54998;42.656;23.382;2023-03-07T00:58:37;9.10;;;4.72;;
68178;SDS011;54998;42.656;23.382;2023-03-07T01:01:03;10.32;;;4.43;;
68178;SDS011;54998;42.656;23.382;2023-03-07T01:03:31;10.32;;;5.35;;
68178;SDS011;54998;42.656;23.382;2023-03-07T01:05:57;15.57;;;6.55;;
68178;SDS011;54998;42.656;23.382;2023-03-07T01:08:25;12.57;;;5.55;;
68178;SDS011;54998;42.656;23.382;2023-03-07T01:10:51;12.18;;;5.65;;
68178;SDS011;54998;42.656;23.382;2023-03-07T01:13:17;12.70;;;5.68;;
68178;SDS011;54998;42.656;23.382;2023-03-07T01:15:43;12.20;;;6.45;;
68178;SDS011;54998;42.656;23.382;2023-03-07T01:18:09;12.85;;;5.78;;
68178;SDS011;54998;42.656;23.382;2023-03-07T01:20:35;12.25;;;5.93;;
68178;SDS011;54998;42.656;23.382;2023-03-07T01:23:02;11.23;;;5.78;;
68178;SDS011;54998;42.656;23.382;2023-03-07T01:25:28;10.93;;;5.25;;
68178;SDS011;54998;42.656;23.382;2023-03-07T01:27:54;12.45;;;4.72;;
68178;SDS011;54998;42.656;23.382;2023-03-07T01:30:19;13.50;;;6.13;;
68178;SDS011;54998;42.656;23.382;2023-03-07T01:32:46;8.90;;;4.75;;
68178;SDS011;54998;42.656;23.382;2023-03-07T01:35:12;11.50;;;5.32;;
68178;SDS011;54998;42.656;23.382;2023-03-07T01:37:38;12.65;;;5.47;;
68178;SDS011;54998;42.656;23.382;2023-03-07T01:40:04;11.73;;;5.25;;
68178;SDS011;54998;42.656;23.382;2023-03-07T01:42:30;9.15;;;4.10;;
68178;SDS011;54998;42.656;23.382;2023-03-07T01:47:24;12.90;;;6.18;;
68178;SDS011;54998;42.656;23.382;2023-03-07T01:49:49;11.57;;;5.85;;
68178;SDS011;54998;42.656;23.382;2023-03-07T01:55:03;10.52;;;5.35;;
68178;SDS011;54998;42.656;23.382;2023-03-07T01:57:35;11.38;;;4.47;;
68178;SDS011;54998;42.656;23.382;2023-03-07T02:00:04;13.52;;;6.10;;
68178;SDS011;54998;42.656;23.382;2023-03-07T02:02:33;14.60;;;5.32;;
68178;SDS011;54998;42.656;23.382;2023-03-07T02:05:13;11.10;;;4.75;;
68178;SDS011;54998;42.656;23.382;2023-03-07T02:07:41;11.23;;;5.53;;
68178;SDS011;54998;42.656;23.382;2023-03-07T02:10:10;12.38;;;5.97;;
68178;SDS011;54998;42.656;23.382;2023-03-07T02:12:39;12.30;;;5.15;;
68178;SDS011;54998;42.656;23.382;2023-03-07T02:15:05;11.85;;;5.53;;
68178;SDS011;54998;42.656;23.382;2023-03-07T02:17:32;12.68;;;5.43;;
68178;SDS011;54998;42.656;23.382;2023-03-07T02:20:02;10.75;;;5.50;;
68178;SDS011;54998;42.656;23.382;2023-03-07T02:22:29;14.02;;;6.60;;
68178;SDS011;54998;42.656;23.382;2023-03-07T02:24:57;10.55;;;5.38;;
68178;SDS011;54998;42.656;23.382;2023-03-07T02:27:28;12.98;;;5.80;;
68178;SDS011;54998;42.656;23.382;2023-03-07T02:29:56;11.23;;;6.05;;
68178;SDS011;54998;42.656;23.382;2023-03-07T02:32:22;14.82;;;6.25;;
68178;SDS011;54998;42.656;23.382;2023-03-07T02:34:47;12.85;;;5.97;;
68178;SDS011;54998;42.656;23.382;2023-03-07T02:39:58;11.50;;;5.90;;
68178;SDS011;54998;42.656;23.382;2023-03-07T02:42:29;12.52;;;5.35;;
68178;SDS011;54998;42.656;23.382;2023-03-07T02:44:58;14.05;;;6.18;;
68178;SDS011;54998;42.656;23.382;2023-03-07T02:47:25;13.98;;;5.88;;
68178;SDS011;54998;42.656;23.382;2023-03-07T02:49:51;14.52;;;5.57;;
68178;SDS011;54998;42.656;23.382;2023-03-07T02:52:17;13.57;;;5.82;;
68178;SDS011;54998;42.656;23.382;2023-03-07T02:54:42;13.05;;;6.28;;
68178;SDS011;54998;42.656;23.382;2023-03-07T02:57:07;13.05;;;5.88;;
68178;SDS011;54998;42.656;23.382;2023-03-07T02:59:34;12.88;;;5.85;;
68178;SDS011;54998;42.656;23.382;2023-03-07T03:02:00;11.50;;;5.72;;
68178;SDS011;54998;42.656;23.382;2023-03-07T03:04:26;12.38;;;6.35;;
68178;SDS011;54998;42.656;23.382;2023-03-07T03:06:51;12.50;;;5.82;;
68178;SDS011;54998;42.656;23.382;2023-03-07T03:09:17;12.30;;;5.90;;
68178;SDS011;54998;42.656;23.382;2023-03-07T03:11:42;10.45;;;5.20;;
68178;SDS011;54998;42.656;23.382;2023-03-07T03:14:07;13.98;;;5.95;;
68178;SDS011;54998;42.656;23.382;2023-03-07T03:16:33;10.93;;;5.05;;
68178;SDS011;54998;42.656;23.382;2023-03-07T03:18:58;10.95;;;5.38;;
68178;SDS011;54998;42.656;23.382;2023-03-07T03:21:24;12.35;;;6.25;;
68178;SDS011;54998;42.656;23.382;2023-03-07T03:23:50;12.75;;;5.47;;
68178;SDS011;54998;42.656;23.382;2023-03-07T03:26:15;11.13;;;5.53;;
68178;SDS011;54998;42.656;23.382;2023-03-07T03:28:41;13.85;;;5.10;;
68178;SDS011;54998;42.656;23.382;2023-03-07T03:31:10;10.57;;;4.93;;
68178;SDS011;54998;42.656;23.382;2023-03-07T03:33:39;12.73;;;5.32;;
68178;SDS011;54998;42.656;23.382;2023-03-07T03:36:06;12.25;;;5.00;;
68178;SDS011;54998;42.656;23.382;2023-03-07T03:38:33;11.45;;;4.88;;
68178;SDS011;54998;42.656;23.382;2023-03-07T03:41:03;10.27;;;4.95;;
68178;SDS011;54998;42.656;23.382;2023-03-07T03:43:29;11.60;;;5.68;;
68178;SDS011;54998;42.656;23.382;2023-03-07T03:45:55;11.15;;;5.53;;
68178;SDS011;54998;42.656;23.382;2023-03-07T03:48:21;12.10;;;5.05;;
68178;SDS011;54998;42.656;23.382;2023-03-07T03:50:48;13.07;;;5.75;;
68178;SDS011;54998;42.656;23.382;2023-03-07T03:53:13;12.27;;;5.72;;
68178;SDS011;54998;42.656;23.382;2023-03-07T03:55:39;12.07;;;5.60;;
68178;SDS011;54998;42.656;23.382;2023-03-07T03:58:04;12.88;;;5.88;;
68178;SDS011;54998;42.656;23.382;2023-03-07T04:00:30;12.63;;;5.60;;
68178;SDS011;54998;42.656;23.382;2023-03-07T04:02:55;10.13;;;4.85;;
68178;SDS011;54998;42.656;23.382;2023-03-07T04:05:21;10.50;;;5.35;;
68178;SDS011;54998;42.656;23.382;2023-03-07T04:07:47;10.38;;;5.55;;
68178;SDS011;54998;42.656;23.382;2023-03-07T04:10:12;12.98;;;6.22;;
68178;SDS011;54998;42.656;23.382;2023-03-07T04:12:38;12.45;;;5.88;;
68178;SDS011;54998;42.656;23.382;2023-03-07T04:15:04;11.63;;;5.22;;
68178;SDS011;54998;42.656;23.382;2023-03-07T04:17:31;10.98;;;5.40;;
68178;SDS011;54998;42.656;23.382;2023-03-07T04:19:56;14.45;;;5.93;;
68178;SDS011;54998;42.656;23.382;2023-03-07T04:22:22;12.85;;;4.88;;
68178;SDS011;54998;42.656;23.382;2023-03-07T04:24:47;12.90;;;6.07;;
68178;SDS011;54998;42.656;23.382;2023-03-07T04:27:13;13.18;;;6.22;;
68178;SDS011;54998;42.656;23.382;2023-03-07T04:29:38;14.48;;;6.20;;
68178;SDS011;54998;42.656;23.382;2023-03-07T04:32:04;14.20;;;6.82;;
68178;SDS011;54998;42.656;23.382;2023-03-07T04:34:29;15.48;;;6.63;;
68178;SDS011;54998;42.656;23.382;2023-03-07T04:36:55;13.05;;;5.75;;
68178;SDS011;54998;42.656;23.382;2023-03-07T04:39:20;12.45;;;5.93;;
68178;SDS011;54998;42.656;23.382;2023-03-07T04:41:46;14.57;;;5.85;;
68178;SDS011;54998;42.656;23.382;2023-03-07T04:44:11;13.55;;;6.07;;
68178;SDS011;54998;42.656;23.382;2023-03-07T04:46:38;15.50;;;6.65;;
68178;SDS011;54998;42.656;23.382;2023-03-07T04:49:03;16.88;;;7.07;;
68178;SDS011;54998;42.656;23.382;2023-03-07T04:51:29;14.68;;;7.18;;
68178;SDS011;54998;42.656;23.382;2023-03-07T04:53:54;16.98;;;7.00;;
68178;SDS011;54998;42.656;23.382;2023-03-07T04:56:19;16.70;;;7.22;;
68178;SDS011;54998;42.656;23.382;2023-03-07T04:58:45;13.80;;;6.65;;
68178;SDS011;54998;42.656;23.382;2023-03-07T05:01:10;16.00;;;7.38;;
68178;SDS011;54998;42.656;23.382;2023-03-07T05:03:36;14.85;;;6.72;;
68178;SDS011;54998;42.656;23.382;2023-03-07T05:06:06;18.17;;;7.78;;
68178;SDS011;54998;42.656;23.382;2023-03-07T05:08:34;18.27;;;7.63;;
68178;SDS011;54998;42.656;23.382;2023-03-07T05:11:00;18.45;;;7.93;;
68178;SDS011;54998;42.656;23.382;2023-03-07T05:13:25;21.33;;;8.27;;
68178;SDS011;54998;42.656;23.382;2023-03-07T05:15:52;15.02;;;7.10;;
68178;SDS011;54998;42.656;23.382;2023-03-07T05:18:18;18.27;;;8.15;;
68178;SDS011;54998;42.656;23.382;2023-03-07T05:20:44;21.77;;;8.35;;
68178;SDS011;54998;42.656;23.382;2023-03-07T05:23:09;23.02;;;8.65;;
68178;SDS011;54998;42.656;23.382;2023-03-07T05:25:35;15.95;;;7.75;;
68178;SDS011;54998;42.656;23.382;2023-03-07T05:28:01;16.20;;;7.78;;
68178;SDS011;54998;42.656;23.382;2023-03-07T05:30:26;18.80;;;7.97;;
68178;SDS011;54998;42.656;23.382;2023-03-07T05:32:52;17.50;;;8.73;;
68178;SDS011;54998;42.656;23.382;2023-03-07T05:35:17;18.08;;;8.02;;
68178;SDS011;54998;42.656;23.382;2023-03-07T05:37:48;16.55;;;6.97;;
68178;SDS011;54998;42.656;23.382;2023-03-07T05:40:15;20.98;;;8.40;;
68178;SDS011;54998;42.656;23.382;2023-03-07T05:42:41;20.08;;;8.48;;
68178;SDS011;54998;42.656;23.382;2023-03-07T05:45:07;22.48;;;8.82;;
68178;SDS011;54998;42.656;23.382;2023-03-07T05:47:33;18.27;;;8.65;;
68178;SDS011;54998;42.656;23.382;2023-03-07T05:49:59;18.90;;;8.20;;
68178;SDS011;54998;42.656;23.382;2023-03-07T05:52:25;17.08;;;8.38;;
68178;SDS011;54998;42.656;23.382;2023-03-07T05:54:51;17.70;;;9.35;;
68178;SDS011;54998;42.656;23.382;2023-03-07T05:57:16;20.70;;;8.35;;
68178;SDS011;54998;42.656;23.382;2023-03-07T05:59:41;20.25;;;8.82;;
68178;SDS011;54998;42.656;23.382;2023-03-07T06:02:07;20.48;;;8.63;;
68178;SDS011;54998;42.656;23.382;2023-03-07T06:04:34;23.55;;;9.02;;
68178;SDS011;54998;42.656;23.382;2023-03-07T06:07:00;14.73;;;8.00;;
68178;SDS011;54998;42.656;23.382;2023-03-07T06:09:25;26.73;;;9.40;;
68178;SDS011;54998;42.656;23.382;2023-03-07T06:11:52;17.23;;;8.18;;
68178;SDS011;54998;42.656;23.382;2023-03-07T06:14:17;15.52;;;7.75;;
68178;SDS011;54998;42.656;23.382;2023-03-07T06:16:42;14.32;;;6.68;;
68178;SDS011;54998;42.656;23.382;2023-03-07T06:19:08;11.93;;;5.80;;
68178;SDS011;54998;42.656;23.382;2023-03-07T06:21:33;14.02;;;6.55;;
68178;SDS011;54998;42.656;23.382;2023-03-07T06:23:59;12.05;;;6.32;;
68178;SDS011;54998;42.656;23.382;2023-03-07T06:26:24;20.42;;;7.03;;
68178;SDS011;54998;42.656;23.382;2023-03-07T06:28:50;13.75;;;7.28;;
68178;SDS011;54998;42.656;23.382;2023-03-07T06:31:16;16.33;;;8.00;;
68178;SDS011;54998;42.656;23.382;2023-03-07T06:33:43;14.30;;;7.22;;
68178;SDS011;54998;42.656;23.382;2023-03-07T06:36:10;14.30;;;6.70;;
68178;SDS011;54998;42.656;23.382;2023-03-07T06:38:37;16.92;;;7.43;;
68178;SDS011;54998;42.656;23.382;2023-03-07T06:41:02;14.27;;;6.88;;
68178;SDS011;54998;42.656;23.382;2023-03-07T06:43:28;15.55;;;7.70;;
68178;SDS011;54998;42.656;23.382;2023-03-07T06:45:54;15.07;;;7.35;;
68178;SDS011;54998;42.656;23.382;2023-03-07T06:48:19;13.65;;;7.00;;
68178;SDS011;54998;42.656;23.382;2023-03-07T06:50:45;13.05;;;7.72;;
68178;SDS011;54998;42.656;23.382;2023-03-07T06:53:11;16.25;;;6.70;;
68178;SDS011;54998;42.656;23.382;2023-03-07T07:22:07;15.18;;;5.95;;
68178;SDS011;54998;42.656;23.382;2023-03-07T07:24:36;12.18;;;6.47;;
68178;SDS011;54998;42.656;23.382;2023-03-07T07:31:53;11.83;;;6.20;;
68178;SDS011;54998;42.656;23.382;2023-03-07T07:34:19;10.80;;;5.95;;
68178;SDS011;54998;42.656;23.382;2023-03-07T07:36:44;12.73;;;5.50;;
68178;SDS011;54998;42.656;23.382;2023-03-07T07:39:09;10.50;;;5.63;;
68178;SDS011;54998;42.656;23.382;2023-03-07T07:44:02;10.55;;;5.47;;
68178;SDS011;54998;42.656;23.382;2023-03-07T07:46:27;10.48;;;5.15;;
68178;SDS011;54998;42.656;23.382;2023-03-07T07:48:53;11.57;;;5.43;;
68178;SDS011;54998;42.656;23.382;2023-03-07T07:51:19;13.07;;;5.15;;
68178;SDS011;54998;42.656;23.382;2023-03-07T07:53:45;12.18;;;5.13;;
68178;SDS011;54998;42.656;23.382;2023-03-07T07:56:10;10.60;;;5.18;;
68178;SDS011;54998;42.656;23.382;2023-03-07T07:58:36;10.68;;;5.22;;
68178;SDS011;54998;42.656;23.382;2023-03-07T08:01:15;12.35;;;6.00;;
68178;SDS011;54998;42.656;23.382;2023-03-07T08:03:44;11.98;;;5.43;;
68178;SDS011;54998;42.656;23.382;2023-03-07T08:06:10;12.02;;;5.22;;
68178;SDS011;54998;42.656;23.382;2023-03-07T08:08:36;9.60;;;5.35;;
68178;SDS011;54998;42.656;23.382;2023-03-07T08:11:01;9.13;;;5.35;;
68178;SDS011;54998;42.656;23.382;2023-03-07T08:13:28;10.63;;;5.57;;
68178;SDS011;54998;42.656;23.382;2023-03-07T08:15:53;9.73;;;5.75;;
68178;SDS011;54998;42.656;23.382;2023-03-07T08:18:19;9.85;;;5.85;;
68178;SDS011;54998;42.656;23.382;2023-03-07T08:20:44;8.82;;;5.70;;
68178;SDS011;54998;42.656;23.382;2023-03-07T08:23:12;9.88;;;6.10;;
68178;SDS011;54998;42.656;23.382;2023-03-07T08:25:38;12.52;;;6.22;;
68178;SDS011;54998;42.656;23.382;2023-03-07T08:28:04;11.05;;;5.95;;
68178;SDS011;54998;42.656;23.382;2023-03-07T08:30:31;12.70;;;6.22;;
68178;SDS011;54998;42.656;23.382;2023-03-07T08:32:57;11.02;;;5.45;;
68178;SDS011;54998;42.656;23.382;2023-03-07T08:35:24;10.63;;;5.85;;
68178;SDS011;54998;42.656;23.382;2023-03-07T08:37:55;16.67;;;6.63;;
68178;SDS011;54998;42.656;23.382;2023-03-07T08:40:22;8.63;;;5.60;;
68178;SDS011;54998;42.656;23.382;2023-03-07T08:42:49;9.77;;;6.32;;
68178;SDS011;54998;42.656;23.382;2023-03-07T08:45:14;10.25;;;5.60;;
68178;SDS011;54998;42.656;23.382;2023-03-07T08:47:39;8.70;;;5.55;;
68178;SDS011;54998;42.656;23.382;2023-03-07T08:50:05;10.80;;;6.15;;
68178;SDS011;54998;42.656;23.382;2023-03-07T08:52:31;11.48;;;5.93;;
68178;SDS011;54998;42.656;23.382;2023-03-07T08:54:56;9.07;;;5.38;;
68178;SDS011;54998;42.656;23.382;2023-03-07T08:57:22;8.10;;;5.72;;
68178;SDS011;54998;42.656;23.382;2023-03-07T08:59:48;9.63;;;6.43;;
68178;SDS011;54998;42.656;23.382;2023-03-07T09:02:14;13.80;;;6.25;;
68178;SDS011;54998;42.656;23.382;2023-03-07T09:04:39;8.82;;;5.78;;
68178;SDS011;54998;42.656;23.382;2023-03-07T09:07:05;9.40;;;6.03;;
68178;SDS011;54998;42.656;23.382;2023-03-07T09:09:30;8.98;;;5.20;;
68178;SDS011;54998;42.656;23.382;2023-03-07T09:11:56;6.57;;;3.95;;
68178;SDS011;54998;42.656;23.382;2023-03-07T09:14:22;8.20;;;4.47;;
68178;SDS011;54998;42.656;23.382;2023-03-07T09:16:47;11.00;;;6.35;;
68178;SDS011;54998;42.656;23.382;2023-03-07T09:19:13;9.75;;;5.88;;
68178;SDS011;54998;42.656;23.382;2023-03-07T09:24:04;10.43;;;6.30;;
68178;SDS011;54998;42.656;23.382;2023-03-07T09:26:30;11.10;;;6.03;;
68178;SDS011;54998;42.656;23.382;2023-03-07T09:28:56;12.25;;;5.97;;
68178;SDS011;54998;42.656;23.382;2023-03-07T09:31:21;10.23;;;5.43;;
68178;SDS011;54998;42.656;23.382;2023-03-07T09:33:47;9.25;;;4.95;;
68178;SDS011;54998;42.656;23.382;2023-03-07T09:36:13;11.90;;;4.55;;
68178;SDS011;54998;42.656;23.382;2023-03-07T09:38:40;5.72;;;4.13;;
68178;SDS011;54998;42.656;23.382;2023-03-07T09:41:19;9.07;;;4.70;;
68178;SDS011;54998;42.656;23.382;2023-03-07T09:43:56;9.50;;;4.63;;
68178;SDS011;54998;42.656;23.382;2023-03-07T09:52:18;10.35;;;5.00;;
68178;SDS011;54998;42.656;23.382;2023-03-07T09:54:54;6.35;;;3.70;;
68178;SDS011;54998;42.656;23.382;2023-03-07T09:58:07;8.82;;;3.85;;
68178;SDS011;54998;42.656;23.382;2023-03-07T10:05:37;6.93;;;3.85;;
68178;SDS011;54998;42.656;23.382;2023-03-07T10:08:08;5.45;;;3.40;;
68178;SDS011;54998;42.656;23.382;2023-03-07T10:21:51;7.78;;;4.47;;
68178;SDS011;54998;42.656;23.382;2023-03-07T10:24:26;8.07;;;4.43;;
68178;SDS011;54998;42.656;23.382;2023-03-07T10:27:02;7.10;;;4.20;;
68178;SDS011;54998;42.656;23.382;2023-03-07T10:29:36;6.75;;;4.60;;
68178;SDS011;54998;42.656;23.382;2023-03-07T10:32:15;9.68;;;4.43;;
68178;SDS011;54998;42.656;23.382;2023-03-07T10:34:46;7.22;;;4.03;;
68178;SDS011;54998;42.656;23.382;2023-03-07T10:37:18;7.45;;;4.03;;
68178;SDS011;54998;42.656;23.382;2023-03-07T10:42:13;6.78;;;3.88;;
68178;SDS011;54998;42.656;23.382;2023-03-07T10:44:41;8.48;;;4.50;;
68178;SDS011;54998;42.656;23.382;2023-03-07T10:47:12;9.40;;;3.75;;
68178;SDS011;54998;42.656;23.382;2023-03-07T10:49:46;7.97;;;2.85;;
68178;SDS011;54998;42.656;23.382;2023-03-07T10:54:44;6.18;;;2.80;;
68178;SDS011;54998;42.656;23.382;2023-03-07T10:59:40;5.30;;;2.65;;
68178;SDS011;54998;42.656;23.382;2023-03-07T11:04:52;4.68;;;2.63;;
68178;SDS011;54998;42.656;23.382;2023-03-07T11:07:23;5.90;;;3.35;;
68178;SDS011;54998;42.656;23.382;2023-03-07T11:09:53;5.75;;;3.15;;
68178;SDS011;54998;42.656;23.382;2023-03-07T11:12:21;4.47;;;2.42;;
68178;SDS011;54998;42.656;23.382;2023-03-07T11:15:08;6.13;;;2.72;;
68178;SDS011;54998;42.656;23.382;2023-03-07T11:17:39;6.80;;;2.85;;
68178;SDS011;54998;42.656;23.382;2023-03-07T11:20:26;5.38;;;2.72;;
68178;SDS011;54998;42.656;23.382;2023-03-07T11:23:17;4.65;;;2.75;;
68178;SDS011;54998;42.656;23.382;2023-03-07T11:25:47;6.70;;;3.38;;
68178;SDS011;54998;42.656;23.382;2023-03-07T11:28:24;5.32;;;2.90;;
68178;SDS011;54998;42.656;23.382;2023-03-07T11:30:52;7.28;;;2.92;;
68178;SDS011;54998;42.656;23.382;2023-03-07T11:33:27;5.07;;;2.88;;
68178;SDS011;54998;42.656;23.382;2023-03-07T11:36:09;4.70;;;2.63;;
68178;SDS011;54998;42.656;23.382;2023-03-07T11:52:21;6.78;;;2.60;;
68178;SDS011;54998;42.656;23.382;2023-03-07T12:19:22;4.65;;;1.88;;
68178;SDS011;54998;42.656;23.382;2023-03-07T12:27:34;2.85;;;1.45;;
68178;SDS011;54998;42.656;23.382;2023-03-07T12:30:08;5.88;;;2.08;;
68178;SDS011;54998;42.656;23.382;2023-03-07T12:32:45;3.47;;;2.10;;
68178;SDS011;54998;42.656;23.382;2023-03-07T12:40:58;2.97;;;1.30;;
68178;SDS011;54998;42.656;23.382;2023-03-07T12:43:48;1.83;;;1.25;;
68178;SDS011;54998;42.656;23.382;2023-03-07T12:52:01;4.03;;;1.70;;
68178;SDS011;54998;42.656;23.382;2023-03-07T12:54:34;3.80;;;1.50;;
68178;SDS011;54998;42.656;23.382;2023-03-07T12:57:21;2.70;;;1.30;;
68178;SDS011;54998;42.656;23.382;2023-03-07T12:59:55;2.10;;;1.13;;
68178;SDS011;54998;42.656;23.382;2023-03-07T13:02:29;2.85;;;1.30;;
68178;SDS011;54998;42.656;23.382;2023-03-07T13:04:59;2.85;;;1.42;;
68178;SDS011;54998;42.656;23.382;2023-03-07T13:07:27;3.53;;;1.52;;
68178;SDS011;54998;42.656;23.382;2023-03-07T13:09:57;2.28;;;1.02;;
68178;SDS011;54998;42.656;23.382;2023-03-07T13:20:00;2.55;;;1.10;;
68178;SDS011;54998;42.656;23.382;2023-03-07T13:25:44;1.92;;;1.45;;
68178;SDS011;54998;42.656;23.382;2023-03-07T13:28:34;2.88;;;1.40;;
68178;SDS011;54998;42.656;23.382;2023-03-07T13:33:45;2.83;;;1.30;;
68178;SDS011;54998;42.656;23.382;2023-03-07T13:45:42;3.38;;;1.30;;
68178;SDS011;54998;42.656;23.382;2023-03-07T13:55:48;3.13;;;1.67;;
68178;SDS011;54998;42.656;23.382;2023-03-07T13:58:23;4.75;;;1.40;;
68178;SDS011;54998;42.656;23.382;2023-03-07T14:00:59;3.00;;;1.17;;
68178;SDS011;54998;42.656;23.382;2023-03-07T14:06:08;3.25;;;1.38;;
68178;SDS011;54998;42.656;23.382;2023-03-07T14:08:39;2.28;;;1.33;;
68178;SDS011;54998;42.656;23.382;2023-03-07T14:11:05;3.60;;;1.65;;
68178;SDS011;54998;42.656;23.382;2023-03-07T14:16:42;2.50;;;1.23;;
68178;SDS011;54998;42.656;23.382;2023-03-07T14:21:55;3.25;;;1.50;;
68178;SDS011;54998;42.656;23.382;2023-03-07T14:24:39;2.63;;;1.33;;
68178;SDS011;54998;42.656;23.382;2023-03-07T14:27:26;3.58;;;1.50;;
68178;SDS011;54998;42.656;23.382;2023-03-07T14:29:53;2.45;;;1.40;;
68178;SDS011;54998;42.656;23.382;2023-03-07T14:34:56;3.25;;;1.42;;
68178;SDS011;54998;42.656;23.382;2023-03-07T14:37:29;3.95;;;1.52;;
68178;SDS011;54998;42.656;23.382;2023-03-07T14:43:08;2.30;;;1.27;;
68178;SDS011;54998;42.656;23.382;2023-03-07T14:48:32;2.42;;;1.13;;
68178;SDS011;54998;42.656;23.382;2023-03-07T14:51:13;3.38;;;1.42;;
68178;SDS011;54998;42.656;23.382;2023-03-07T14:53:41;5.00;;;1.50;;
68178;SDS011;54998;42.656;23.382;2023-03-07T14:56:07;3.58;;;1.35;;
68178;SDS011;54998;42.656;23.382;2023-03-07T14:58:35;3.83;;;1.45;;
68178;SDS011;54998;42.656;23.382;2023-03-07T15:01:14;2.13;;;0.80;;
68178;SDS011;54998;42.656;23.382;2023-03-07T15:06:10;3.60;;;1.52;;
68178;SDS011;54998;42.656;23.382;2023-03-07T15:08:38;2.20;;;1.58;;
68178;SDS011;54998;42.656;23.382;2023-03-07T15:11:05;2.95;;;1.08;;
68178;SDS011;54998;42.656;23.382;2023-03-07T15:14:33;3.88;;;1.45;;
68178;SDS011;54998;42.656;23.382;2023-03-07T15:16:41;3.25;;;1.60;;
68178;SDS011;54998;42.656;23.382;2023-03-07T15:19:48;2.72;;;1.55;;
68178;SDS011;54998;42.656;23.382;2023-03-07T15:22:18;3.70;;;1.70;;
68178;SDS011;54998;42.656;23.382;2023-03-07T15:24:47;3.78;;;1.75;;
68178;SDS011;54998;42.656;23.382;2023-03-07T15:27:16;5.82;;;1.80;;
68178;SDS011;54998;42.656;23.382;2023-03-07T15:30:17;2.45;;;1.40;;
68178;SDS011;54998;42.656;23.382;2023-03-07T15:33:01;4.20;;;1.70;;
68178;SDS011;54998;42.656;23.382;2023-03-07T15:38:42;3.80;;;2.00;;
68178;SDS011;54998;42.656;23.382;2023-03-07T15:41:25;4.15;;;1.92;;
68178;SDS011;54998;42.656;23.382;2023-03-07T15:44:04;4.10;;;1.92;;
68178;SDS011;54998;42.656;23.382;2023-03-07T15:46:40;3.50;;;1.58;;
68178;SDS011;54998;42.656;23.382;2023-03-07T15:51:48;4.80;;;1.60;;
68178;SDS011;54998;42.656;23.382;2023-03-07T15:54:38;5.07;;;2.20;;
68178;SDS011;54998;42.656;23.382;2023-03-07T15:57:05;7.07;;;1.67;;
68178;SDS011;54998;42.656;23.382;2023-03-07T16:05:00;3.78;;;1.83;;
68178;SDS011;54998;42.656;23.382;2023-03-07T16:07:30;6.03;;;1.83;;
68178;SDS011;54998;42.656;23.382;2023-03-07T16:09:56;5.57;;;2.10;;
68178;SDS011;54998;42.656;23.382;2023-03-07T16:12:21;7.70;;;1.95;;
68178;SDS011;54998;42.656;23.382;2023-03-07T16:14:49;4.10;;;1.77;;
68178;SDS011;54998;42.656;23.382;2023-03-07T16:17:29;5.90;;;1.98;;
68178;SDS011;54998;42.656;23.382;2023-03-07T16:19:58;4.05;;;1.92;;
68178;SDS011;54998;42.656;23.382;2023-03-07T16:22:23;4.20;;;2.13;;
68178;SDS011;54998;42.656;23.382;2023-03-07T16:24:50;3.20;;;2.13;;
68178;SDS011;54998;42.656;23.382;2023-03-07T16:27:16;3.30;;;1.70;;
68178;SDS011;54998;42.656;23.382;2023-03-07T16:29:43;4.78;;;1.95;;
68178;SDS011;54998;42.656;23.382;2023-03-07T16:32:13;2.92;;;1.45;;
68178;SDS011;54998;42.656;23.382;2023-03-07T16:34:41;6.30;;;1.98;;
68178;SDS011;54998;42.656;23.382;2023-03-07T16:37:07;4.72;;;1.98;;
68178;SDS011;54998;42.656;23.382;2023-03-07T16:39:32;4.05;;;2.05;;
68178;SDS011;54998;42.656;23.382;2023-03-07T16:42:00;4.47;;;1.88;;
68178;SDS011;54998;42.656;23.382;2023-03-07T16:44:27;4.53;;;1.83;;
68178;SDS011;54998;42.656;23.382;2023-03-07T16:47:04;3.97;;;2.00;;
68178;SDS011;54998;42.656;23.382;2023-03-07T16:49:33;3.47;;;1.83;;
68178;SDS011;54998;42.656;23.382;2023-03-07T16:51:59;6.28;;;2.30;;
68178;SDS011;54998;42.656;23.382;2023-03-07T16:54:27;3.95;;;1.98;;
68178;SDS011;54998;42.656;23.382;2023-03-07T16:56:52;4.47;;;2.30;;
68178;SDS011;54998;42.656;23.382;2023-03-07T16:59:19;2.97;;;1.80;;
68178;SDS011;54998;42.656;23.382;2023-03-07T17:01:47;5.03;;;2.38;;
68178;SDS011;54998;42.656;23.382;2023-03-07T17:04:15;5.90;;;2.20;;
68178;SDS011;54998;42.656;23.382;2023-03-07T17:06:41;4.03;;;1.88;;
68178;SDS011;54998;42.656;23.382;2023-03-07T17:09:08;4.82;;;2.03;;
68178;SDS011;54998;42.656;23.382;2023-03-07T17:11:35;5.00;;;2.65;;
68178;SDS011;54998;42.656;23.382;2023-03-07T17:14:03;4.30;;;2.22;;
68178;SDS011;54998;42.656;23.382;2023-03-07T17:16:32;6.82;;;2.50;;
68178;SDS011;54998;42.656;23.382;2023-03-07T17:19:11;5.78;;;3.17;;
68178;SDS011;54998;42.656;23.382;2023-03-07T17:22:01;5.32;;;2.70;;
68178;SDS011;54998;42.656;23.382;2023-03-07T17:24:27;6.78;;;2.20;;
68178;SDS011;54998;42.656;23.382;2023-03-07T17:26:53;4.25;;;2.50;;
68178;SDS011;54998;42.656;23.382;2023-03-07T17:31:50;6.22;;;2.50;;
68178;SDS011;54998;42.656;23.382;2023-03-07T17:34:18;4.88;;;1.98;;
68178;SDS011;54998;42.656;23.382;2023-03-07T17:36:54;5.35;;;2.50;;
68178;SDS011;54998;42.656;23.382;2023-03-07T17:41:46;5.82;;;2.60;;
68178;SDS011;54998;42.656;23.382;2023-03-07T17:44:12;6.97;;;2.30;;
68178;SDS011;54998;42.656;23.382;2023-03-07T17:46:38;5.13;;;2.00;;
68178;SDS011;54998;42.656;23.382;2023-03-07T17:49:03;8.20;;;2.92;;
68178;SDS011;54998;42.656;23.382;2023-03-07T17:51:29;5.25;;;2.67;;
68178;SDS011;54998;42.656;23.382;2023-03-07T17:53:55;3.85;;;2.15;;